Airfield :
LOGIN :

Register | Disclaimer

   EN    FR    IT 

 










Legend :    VFR   Marginal VFR   IFR   Intensive IFR   Very Intensive IFR
Visi :
Ceiling :
>= 8 km
>= 3000ft
5 to 8 km
1000 to 3000 ft
1500m to 5 km
500 to 1000 ft
800 to 1500m
200 to 500 ft
< 800m
< 200 ft
Symbols :   Thunderstorms  Fog  Heavy snow  Heavy precipitations  Wind > 20 kt
SIGMETs :     Misc.  Thunderstorms  Icing  Turbulence  Mountain Waves  Volcanic Ashes







- Airport Elevation : 92 ft


EGXZ - RAP Topcliffe

CURRENT METAR :
  • 220850Z 17013KT 9999 SCT023 BKN050 13/11 Q0990 WHT

EXPIRED METARs :
  • 220750Z 13008KT 9999 BKN025 SCT037 10/09 Q0990 BLU
  • 220650Z AUTO 21003KT 9999 FEW022/// BKN050/// 10/09 Q0991 RERA

TAF TAF EGXZ
Valid from the 22 at 09:00 until the 22 at 18:00 UTC


220849Z 2209/2218 20012KT 9999 FEW009 BKN025
BECMG 2209/2210 18015G26KT
TEMPO 2209/2211 7000 -RADZ SCT009
TEMPO 2211/2218 7000 -RADZ SCT020
PROB30
TEMPO 2214/2218 18025G40KT
No reported NOTAMs for that airfield.
2 SIGMETs reported for the London FIR (EGTT) :
 
Severe turbulence
EGTT SIGMET 03 VALID 220803/221000 EGRR
EGTT LONDON FIR SEV TURB FCST WI N5100 W00800 - N5220 W00530 - N5318 W00530 - N5348 W00353 - N5139 W00412 - N5047 W00532 - N4920 W00534 - N4850 W00800 - N5100 W00800 SFC/FL060 MOV E 10KT INTSF=
Severe mountain waves
EGTT SIGMET 02 VALID 220600/221000 EGRR
EGTT LONDON FIR SEV MTW FCST WI N5500 E00045 - N5412 E00110 - N5047 W00255 - N5045 W00430 - N5310 W00414 - N5500 W00415 - N5500 E00045 FL040/180 STNR NC=



MET'MAP, your aeronautical weather chart ! - Copyright ORBIFLY December 2007 - Disclaimer

ORBIFLY MET'MAP TEAM :

Programming & Development : Alexandra Zaïnal
Concept & Development : Baudouin d'Aumeries
Co-Development & Prog : Marc-Olivier Méhu
Technical & hardware support : Manuel Goepfert

Contact : metmap@orbifly.com




SOURCES & CREDITS :

   NOAA